createdAt,value
2022-08-23T00:02:25.564Z,3.92
2022-08-23T00:05:08.305Z,5.53
2022-08-23T00:07:42.054Z,7.28
2022-08-23T00:10:10.440Z,6.75
2022-08-23T00:12:37.736Z,4.93
2022-08-23T00:15:04.963Z,6.43
2022-08-23T00:17:34.541Z,5.57
2022-08-23T00:20:07.524Z,5.57
2022-08-23T00:22:34.289Z,6.13
2022-08-23T00:25:00.911Z,5.05
2022-08-23T00:27:27.654Z,5.65
2022-08-23T00:29:55.691Z,3.90
2022-08-23T00:32:29.626Z,4.63
2022-08-23T00:34:56.985Z,4.40
2022-08-23T00:37:24.050Z,4.63
2022-08-23T00:39:51.283Z,3.92
2022-08-23T00:42:53.593Z,4.80
2022-08-23T00:45:45.644Z,4.07
2022-08-23T00:48:13.269Z,3.70
2022-08-23T00:50:42.735Z,3.70
2022-08-23T00:53:24.009Z,5.10
2022-08-23T00:55:54.554Z,5.63
2022-08-23T00:58:21.885Z,6.07
2022-08-23T01:00:50.168Z,6.43
2022-08-23T01:03:18.645Z,5.53
2022-08-23T01:05:55.771Z,5.95
2022-08-23T01:08:25.558Z,5.82
2022-08-23T01:10:57.107Z,3.92
2022-08-23T01:13:30.158Z,5.07
2022-08-23T01:18:30.470Z,7.15
2022-08-23T01:21:10.564Z,4.65
2022-08-23T01:23:53.526Z,5.28
2022-08-23T01:26:22.223Z,3.38
2022-08-23T01:28:49.941Z,7.00
2022-08-23T01:31:18.546Z,4.63
2022-08-23T01:33:49.981Z,5.38
2022-08-23T01:36:17.385Z,5.15
2022-08-23T01:38:43.910Z,3.90
2022-08-23T01:41:10.377Z,5.65
2022-08-23T01:43:37.880Z,4.60
2022-08-23T01:46:11.169Z,5.90
2022-08-23T01:51:04.956Z,7.70
2022-08-23T01:53:32.048Z,6.03
2022-08-23T01:56:01.712Z,6.28
2022-08-23T01:58:32.549Z,5.65
2022-08-23T02:00:59.380Z,8.75
2022-08-23T02:03:26.098Z,8.70
2022-08-23T02:08:42.737Z,5.75
2022-08-23T02:11:15.194Z,6.45
2022-08-23T02:13:43.371Z,4.63
2022-08-23T02:16:10.792Z,5.80
2022-08-23T02:18:41.690Z,7.78
2022-08-23T02:21:09.678Z,5.95
2022-08-23T02:23:36.165Z,5.47
2022-08-23T02:26:02.657Z,4.38
2022-08-23T02:28:29.111Z,6.10
2022-08-23T02:30:55.572Z,3.13
2022-08-23T02:33:22.267Z,4.85
2022-08-23T02:35:49.645Z,6.13
2022-08-23T02:38:17.217Z,4.22
2022-08-23T02:40:44.105Z,5.13
2022-08-23T02:43:11.382Z,4.45
2022-08-23T02:45:38.577Z,3.83
2022-08-23T02:48:05.400Z,3.55
2022-08-23T02:50:32.579Z,4.28
2022-08-23T02:52:59.324Z,4.03
2022-08-23T02:55:26.616Z,4.85
2022-08-23T02:57:53.546Z,5.25
2022-08-23T03:00:20.420Z,6.38
2022-08-23T03:02:47.410Z,3.75
2022-08-23T03:05:15.241Z,4.25
2022-08-23T03:07:42.402Z,4.75
2022-08-23T03:10:10.460Z,4.25
2022-08-23T03:12:37.935Z,7.32
2022-08-23T03:15:05.711Z,6.25
2022-08-23T03:17:32.447Z,5.63
2022-08-23T03:19:58.995Z,3.80
2022-08-23T03:22:25.545Z,5.68
2022-08-23T03:24:52.482Z,5.70
2022-08-23T03:27:18.940Z,5.10
2022-08-23T03:29:45.408Z,4.93
2022-08-23T03:32:11.926Z,5.78
2022-08-23T03:34:42.058Z,3.45
2022-08-23T03:37:08.592Z,3.83
2022-08-23T03:39:35.112Z,5.85
2022-08-23T03:42:01.629Z,4.25
2022-08-23T03:44:28.227Z,5.80
2022-08-23T03:46:54.776Z,4.93
2022-08-23T03:49:21.292Z,4.07
2022-08-23T03:51:47.777Z,4.63
2022-08-23T03:54:14.317Z,4.20
2022-08-23T03:56:55.529Z,6.40
2022-08-23T03:59:22.410Z,5.47
2022-08-23T04:01:49.438Z,6.82
2022-08-23T04:04:16.183Z,6.80
2022-08-23T04:06:45.084Z,4.47
2022-08-23T04:09:13.393Z,6.10
2022-08-23T04:11:40.027Z,5.30
2022-08-23T04:14:06.740Z,4.50
2022-08-23T04:16:37.496Z,5.63
2022-08-23T04:19:04.991Z,6.03
2022-08-23T04:21:32.195Z,5.47
2022-08-23T04:23:58.678Z,6.47
2022-08-23T04:26:29.691Z,4.70
2022-08-23T04:28:56.998Z,4.53
2022-08-23T04:31:26.168Z,5.43
2022-08-23T04:33:54.369Z,8.23
2022-08-23T04:36:23.426Z,4.97
2022-08-23T04:38:50.163Z,7.72
2022-08-23T04:41:36.342Z,4.57
2022-08-23T04:44:03.508Z,6.28
2022-08-23T04:46:29.977Z,6.10
2022-08-23T04:48:56.577Z,9.15
2022-08-23T04:51:23.096Z,5.93
2022-08-23T04:53:49.586Z,6.82
2022-08-23T04:56:16.098Z,5.68
2022-08-23T04:58:42.557Z,7.57
2022-08-23T05:01:10.923Z,3.83
2022-08-23T05:03:38.454Z,4.50
2022-08-23T05:06:05.260Z,5.22
2022-08-23T05:08:32.380Z,4.28
2022-08-23T05:11:04.665Z,5.78
2022-08-23T05:13:32.725Z,4.90
2022-08-23T05:16:01.837Z,5.68
2022-08-23T05:18:28.386Z,8.68
2022-08-23T05:20:54.910Z,7.25
2022-08-23T05:23:23.484Z,7.93
2022-08-23T05:25:59.187Z,5.55
2022-08-23T05:28:30.309Z,7.82
2022-08-23T05:31:32.223Z,7.10
2022-08-23T05:33:59.117Z,10.18
2022-08-23T05:36:25.636Z,5.28
2022-08-23T05:38:53.392Z,7.25
2022-08-23T05:41:21.104Z,5.60
2022-08-23T05:43:48.339Z,8.18
2022-08-23T05:46:18.433Z,5.93
2022-08-23T05:48:48.457Z,8.27
2022-08-23T05:51:16.526Z,10.00
2022-08-23T05:53:44.365Z,9.45
2022-08-23T05:56:13.635Z,11.50
2022-08-23T05:58:40.545Z,9.13
2022-08-23T06:01:07.115Z,7.85
2022-08-23T06:03:33.662Z,8.88
2022-08-23T06:06:01.609Z,8.40
2022-08-23T06:08:28.566Z,9.70
2022-08-23T06:11:06.625Z,11.00
2022-08-23T06:13:33.981Z,10.57
2022-08-23T06:16:00.499Z,9.07
2022-08-23T06:18:41.103Z,10.85
2022-08-23T06:21:11.273Z,7.50
2022-08-23T06:23:38.461Z,7.97
2022-08-23T06:26:17.179Z,6.03
2022-08-23T06:28:50.882Z,6.00
2022-08-23T06:31:38.829Z,6.88
2022-08-23T06:34:05.457Z,5.80
2022-08-23T06:36:31.993Z,6.40
2022-08-23T06:38:58.460Z,7.57
2022-08-23T06:41:25.074Z,8.00
2022-08-23T06:43:51.788Z,5.80
2022-08-23T06:46:23.450Z,8.68
2022-08-23T06:48:50.976Z,11.20
2022-08-23T06:51:27.654Z,7.45
2022-08-23T06:54:02.871Z,11.13
2022-08-23T06:56:30.049Z,10.85
2022-08-23T06:58:56.967Z,9.95
2022-08-23T07:01:45.090Z,5.07
2022-08-23T07:04:15.897Z,7.50
2022-08-23T07:06:42.567Z,9.38
2022-08-23T07:09:09.081Z,8.50
2022-08-23T07:11:36.784Z,9.65
2022-08-23T07:14:10.493Z,8.35
2022-08-23T07:16:40.854Z,7.45
2022-08-23T07:19:09.093Z,10.20
2022-08-23T07:21:36.696Z,6.65
2022-08-23T07:24:04.022Z,6.65
2022-08-23T07:26:31.405Z,8.00
2022-08-23T07:28:58.013Z,6.57
2022-08-23T07:31:31.746Z,6.22
2022-08-23T07:34:02.475Z,7.32
2022-08-23T07:36:31.664Z,4.05
2022-08-23T07:38:58.766Z,9.93
2022-08-23T07:41:31.112Z,6.43
2022-08-23T07:44:02.393Z,9.45
2022-08-23T07:46:31.088Z,8.60
2022-08-23T07:48:58.273Z,7.63
2022-08-23T07:51:25.857Z,4.05
2022-08-23T07:53:52.354Z,8.48
2022-08-23T07:56:20.870Z,6.38
2022-08-23T07:58:47.727Z,5.85
2022-08-23T08:01:16.426Z,6.88
2022-08-23T08:03:44.133Z,4.95
2022-08-23T08:06:13.813Z,7.15
2022-08-23T08:08:41.728Z,5.28
2022-08-23T08:11:10.928Z,5.75
2022-08-23T08:13:39.137Z,4.88
2022-08-23T08:16:06.115Z,5.47
2022-08-23T08:18:32.773Z,8.52
2022-08-23T08:20:59.368Z,6.65
2022-08-23T08:23:25.861Z,7.20
2022-08-23T08:26:02.968Z,6.55
2022-08-23T08:28:29.637Z,8.57
2022-08-23T08:30:56.262Z,8.73
2022-08-23T08:33:22.837Z,9.65
2022-08-23T08:36:00.874Z,7.20
2022-08-23T08:38:30.628Z,5.68
2022-08-23T08:41:34.805Z,8.68
2022-08-23T08:44:19.153Z,6.75
2022-08-23T08:46:51.550Z,3.63
2022-08-23T08:49:32.003Z,5.22
2022-08-23T08:52:32.365Z,5.15
2022-08-23T08:55:23.394Z,5.28
2022-08-23T08:57:53.537Z,6.70
2022-08-23T09:00:25.237Z,3.47
2022-08-23T09:02:52.130Z,4.38
2022-08-23T09:05:29.115Z,4.38
2022-08-23T09:08:24.405Z,3.55
2022-08-23T09:11:18.686Z,5.30
2022-08-23T09:14:16.726Z,4.38
2022-08-23T09:16:53.537Z,5.70
2022-08-23T09:19:22.943Z,3.28
2022-08-23T09:21:58.241Z,4.45
2022-08-23T09:24:26.162Z,4.65
2022-08-23T09:26:56.288Z,3.58
2022-08-23T09:29:32.007Z,4.15
2022-08-23T09:32:20.995Z,4.50
2022-08-23T09:34:47.437Z,2.60
2022-08-23T09:37:23.478Z,4.38
2022-08-23T09:40:16.475Z,3.65
2022-08-23T09:42:44.039Z,5.00
2022-08-23T09:45:28.115Z,2.83
2022-08-23T09:47:55.422Z,3.85
2022-08-23T09:50:29.112Z,2.92
2022-08-23T09:53:00.204Z,5.80
2022-08-23T09:55:32.191Z,3.60
2022-08-23T09:58:00.744Z,3.83
2022-08-23T10:00:32.476Z,2.88
2022-08-23T10:03:28.855Z,3.83
2022-08-23T10:06:00.926Z,1.95
2022-08-23T10:08:32.822Z,4.82
2022-08-23T10:11:05.390Z,2.53
2022-08-23T10:13:35.972Z,4.53
2022-08-23T10:16:29.066Z,2.67
2022-08-23T10:19:03.473Z,4.40
2022-08-23T10:21:54.417Z,1.83
2022-08-23T10:25:02.645Z,2.72
2022-08-23T10:28:12.549Z,3.97
2022-08-23T10:30:45.800Z,2.03
2022-08-23T10:34:02.163Z,3.63
2022-08-23T10:36:34.038Z,1.75
2022-08-23T10:39:21.414Z,3.80
2022-08-23T10:42:13.936Z,3.65
2022-08-23T10:44:55.556Z,2.42
2022-08-23T10:49:52.550Z,3.97
2022-08-23T10:53:04.003Z,4.15
2022-08-23T10:56:02.850Z,2.55
2022-08-23T10:58:38.777Z,2.65
2022-08-23T11:01:07.855Z,2.25
2022-08-23T11:04:20.733Z,3.17
2022-08-23T11:06:54.632Z,3.92
2022-08-23T11:09:21.174Z,3.63
2022-08-23T11:12:19.498Z,5.18
2022-08-23T11:14:58.070Z,3.30
2022-08-23T11:17:27.067Z,2.10
2022-08-23T11:20:14.642Z,3.17
2022-08-23T11:23:00.065Z,2.30
2022-08-23T11:25:26.438Z,3.75
2022-08-23T11:28:20.585Z,2.72
2022-08-23T11:30:59.952Z,1.65
2022-08-23T11:33:36.946Z,3.30
2022-08-23T11:36:09.402Z,8.00
2022-08-23T11:38:48.153Z,2.78
2022-08-23T11:41:14.617Z,1.70
2022-08-23T11:43:43.894Z,2.95
2022-08-23T11:46:25.603Z,3.35
2022-08-23T11:49:29.766Z,2.90
2022-08-23T11:52:21.478Z,2.67
2022-08-23T11:55:21.830Z,1.83
2022-08-23T11:58:02.577Z,2.40
2022-08-23T12:00:57.453Z,2.30
2022-08-23T12:03:32.467Z,7.47
2022-08-23T12:06:39.279Z,2.72
2022-08-23T12:09:25.353Z,2.92
2022-08-23T12:11:54.844Z,2.25
2022-08-23T12:14:30.587Z,1.92
2022-08-23T12:17:04.350Z,3.17
2022-08-23T12:19:48.921Z,3.92
2022-08-23T12:22:19.647Z,2.70
2022-08-23T12:24:52.758Z,2.40
2022-08-23T12:27:42.246Z,4.95
2022-08-23T12:30:26.737Z,2.22
2022-08-23T12:33:28.566Z,3.38
2022-08-23T12:35:54.991Z,2.25
2022-08-23T12:38:27.201Z,2.55
2022-08-23T12:40:54.846Z,3.00
2022-08-23T12:43:22.446Z,4.10
2022-08-23T12:45:52.925Z,1.00
2022-08-23T12:48:23.027Z,4.28
2022-08-23T12:51:12.000Z,2.22
2022-08-23T12:53:45.047Z,5.07
2022-08-23T12:56:31.453Z,3.33
2022-08-23T12:59:04.883Z,1.02
2022-08-23T13:01:35.804Z,3.90
2022-08-23T13:04:12.131Z,1.33
2022-08-23T13:06:46.285Z,3.10
2022-08-23T13:09:18.917Z,2.53
2022-08-23T13:11:46.194Z,1.75
2022-08-23T13:14:44.190Z,1.95
2022-08-23T13:17:36.682Z,2.42
2022-08-23T13:20:04.048Z,1.50
2022-08-23T13:22:31.959Z,6.47
2022-08-23T13:27:57.786Z,2.60
2022-08-23T13:30:30.653Z,2.97
2022-08-23T13:33:07.693Z,2.53
2022-08-23T13:35:37.874Z,1.30
2022-08-23T13:38:18.302Z,1.27
2022-08-23T13:41:03.352Z,1.20
2022-08-23T13:43:39.333Z,2.47
2022-08-23T13:46:17.867Z,1.50
2022-08-23T13:48:57.233Z,2.15
2022-08-23T13:51:26.737Z,2.33
2022-08-23T13:53:56.163Z,4.60
2022-08-23T13:56:23.371Z,1.77
2022-08-23T13:58:56.441Z,2.50
2022-08-23T14:01:23.690Z,3.45
2022-08-23T14:03:50.314Z,1.67
2022-08-23T14:06:16.919Z,2.28
2022-08-23T14:08:43.557Z,2.95
2022-08-23T14:11:11.892Z,1.25
2022-08-23T14:13:38.694Z,2.53
2022-08-23T14:21:41.158Z,2.70
2022-08-23T14:24:07.687Z,2.28
2022-08-23T14:26:35.039Z,2.55
2022-08-23T14:29:01.533Z,1.30
2022-08-23T14:31:28.066Z,3.70
2022-08-23T14:33:58.815Z,1.63
2022-08-23T14:36:29.919Z,2.30
2022-08-23T14:38:56.770Z,3.42
2022-08-23T14:41:26.487Z,2.00
2022-08-23T14:43:53.981Z,3.30
2022-08-23T14:46:21.983Z,1.38
2022-08-23T14:48:48.536Z,1.45
2022-08-23T14:51:32.582Z,1.90
2022-08-23T14:54:00.128Z,1.63
2022-08-23T14:56:27.060Z,5.05
2022-08-23T14:58:53.514Z,4.18
2022-08-23T15:01:20.930Z,2.85
2022-08-23T15:03:47.718Z,2.72
2022-08-23T15:06:15.960Z,2.97
2022-08-23T15:08:43.550Z,2.25
2022-08-23T15:14:00.412Z,2.45
2022-08-23T15:16:27.816Z,2.85
2022-08-23T15:18:55.467Z,4.35
2022-08-23T15:21:22.356Z,1.88
2022-08-23T15:23:49.547Z,3.92
2022-08-23T15:26:20.073Z,1.83
2022-08-23T15:28:46.696Z,3.15
2022-08-23T15:31:16.014Z,3.97
2022-08-23T15:33:42.660Z,2.22
2022-08-23T15:36:11.737Z,1.10
2022-08-23T15:38:38.688Z,2.28
2022-08-23T15:41:05.930Z,3.92
2022-08-23T15:43:34.345Z,4.00
2022-08-23T15:46:07.567Z,2.53
2022-08-23T15:48:41.721Z,10.07
2022-08-23T15:51:09.810Z,3.60
2022-08-23T15:53:40.328Z,2.03
2022-08-23T15:56:13.683Z,3.40
2022-08-23T15:58:40.321Z,2.78
2022-08-23T16:01:07.023Z,3.67
2022-08-23T16:03:33.913Z,1.73
2022-08-23T16:06:01.841Z,4.03
2022-08-23T16:08:32.381Z,3.70
2022-08-23T16:10:59.349Z,2.30
2022-08-23T16:13:26.753Z,5.43
2022-08-23T16:15:53.418Z,2.28
2022-08-23T16:18:19.969Z,3.00
2022-08-23T16:20:46.502Z,2.65
2022-08-23T16:23:13.504Z,3.00
2022-08-23T16:25:40.883Z,2.35
2022-08-23T16:28:07.981Z,2.00
2022-08-23T16:30:35.253Z,1.85
2022-08-23T16:33:02.075Z,2.25
2022-08-23T16:35:28.729Z,1.30
2022-08-23T16:37:55.334Z,2.80
2022-08-23T16:40:22.657Z,2.47
2022-08-23T16:42:49.340Z,1.85
2022-08-23T16:45:15.898Z,2.58
2022-08-23T16:47:44.838Z,2.38
2022-08-23T16:50:13.170Z,5.10
2022-08-23T16:52:39.762Z,1.73
2022-08-23T16:55:09.758Z,3.33
2022-08-23T16:57:36.774Z,2.47
2022-08-23T17:00:06.945Z,2.33
2022-08-23T17:02:36.483Z,1.70
2022-08-23T17:05:05.751Z,1.60
2022-08-23T17:07:32.505Z,1.60
2022-08-23T17:09:58.975Z,1.88
2022-08-23T17:12:25.909Z,2.65
2022-08-23T17:14:52.501Z,1.95
2022-08-23T17:17:19.037Z,2.65
2022-08-23T17:19:45.909Z,1.63
2022-08-23T17:22:12.523Z,2.90
2022-08-23T17:24:39.387Z,4.68
2022-08-23T17:27:06.353Z,3.63
2022-08-23T17:29:34.637Z,4.40
2022-08-23T17:32:04.269Z,2.08
2022-08-23T17:34:30.789Z,2.28
2022-08-23T17:36:57.246Z,2.95
2022-08-23T17:39:28.302Z,4.32
2022-08-23T17:41:58.267Z,7.97
2022-08-23T17:44:25.076Z,5.22
2022-08-23T17:46:51.778Z,3.67
2022-08-23T17:49:19.183Z,4.35
2022-08-23T17:51:45.729Z,2.83
2022-08-23T17:54:16.038Z,2.97
2022-08-23T17:56:49.876Z,2.90
2022-08-23T17:59:18.383Z,1.73
2022-08-23T18:01:44.865Z,2.20
2022-08-23T18:04:11.733Z,3.05
2022-08-23T18:06:38.625Z,2.78
2022-08-23T18:09:06.906Z,3.15
2022-08-23T18:11:34.925Z,2.88
2022-08-23T18:14:02.108Z,4.95
2022-08-23T18:16:34.449Z,6.22
2022-08-23T18:19:03.337Z,4.22
2022-08-23T18:21:30.963Z,6.60
2022-08-23T18:23:58.280Z,7.68
2022-08-23T18:26:43.507Z,5.88
2022-08-23T18:29:12.293Z,2.80
2022-08-23T18:31:41.592Z,6.50
2022-08-23T18:34:09.269Z,4.93
2022-08-23T18:36:36.295Z,5.03
2022-08-23T18:39:04.366Z,3.85
2022-08-23T18:41:33.972Z,3.53
2022-08-23T18:44:05.478Z,2.63
2022-08-23T18:46:37.853Z,3.33
2022-08-23T18:49:05.795Z,5.30
2022-08-23T18:51:36.776Z,1.92
2022-08-23T18:54:04.229Z,4.13
2022-08-23T18:56:30.828Z,3.25
2022-08-23T18:58:57.577Z,2.67
2022-08-23T19:01:30.876Z,3.35
2022-08-23T19:04:02.970Z,3.95
2022-08-23T19:06:29.644Z,11.88
2022-08-23T19:08:56.504Z,4.88
2022-08-23T19:11:24.394Z,5.35
2022-08-23T19:13:51.192Z,2.38
2022-08-23T19:16:18.784Z,4.13
2022-08-23T19:18:46.595Z,1.85
2022-08-23T19:21:15.566Z,3.72
2022-08-23T19:23:42.406Z,4.10
2022-08-23T19:26:10.695Z,2.25
2022-08-23T19:28:37.764Z,3.92
2022-08-23T19:31:05.342Z,2.50
2022-08-23T19:33:32.289Z,2.38
2022-08-23T19:35:59.032Z,3.38
2022-08-23T19:38:27.742Z,4.05
2022-08-23T19:40:55.661Z,2.95
2022-08-23T19:43:22.828Z,4.07
2022-08-23T19:45:49.433Z,5.15
2022-08-23T19:48:15.981Z,9.20
2022-08-23T19:50:42.926Z,5.78
2022-08-23T19:53:09.789Z,4.65
2022-08-23T19:55:41.711Z,2.80
2022-08-23T19:58:08.737Z,5.07
2022-08-23T20:00:35.963Z,3.58
2022-08-23T20:03:03.070Z,3.88
2022-08-23T20:05:30.223Z,5.25
2022-08-23T20:07:56.855Z,7.63
2022-08-23T20:10:23.733Z,3.60
2022-08-23T20:12:50.259Z,5.45
2022-08-23T20:15:16.749Z,3.85
2022-08-23T20:17:43.374Z,3.67
2022-08-23T20:20:13.725Z,3.80
2022-08-23T20:23:00.112Z,5.22
2022-08-23T20:25:26.653Z,3.60
2022-08-23T20:27:53.154Z,4.45
2022-08-23T20:30:19.768Z,3.13
2022-08-23T20:32:46.285Z,3.53
2022-08-23T20:35:12.964Z,4.60
2022-08-23T20:37:39.738Z,2.50
2022-08-23T20:40:10.140Z,2.17
2022-08-23T20:42:38.087Z,2.85
2022-08-23T20:45:05.682Z,3.30
2022-08-23T20:47:32.711Z,3.88
2022-08-23T20:49:59.255Z,3.28
2022-08-23T20:52:25.703Z,2.00
2022-08-23T20:54:53.447Z,3.58
2022-08-23T20:57:19.990Z,2.92
2022-08-23T20:59:46.533Z,3.35
2022-08-23T21:02:13.362Z,3.22
2022-08-23T21:04:40.306Z,3.90
2022-08-23T21:07:08.423Z,4.68
2022-08-23T21:09:35.122Z,4.72
2022-08-23T21:12:01.585Z,3.53
2022-08-23T21:14:28.156Z,3.25
2022-08-23T21:16:54.630Z,2.55
2022-08-23T21:19:21.313Z,3.13
2022-08-23T21:21:48.578Z,2.47
2022-08-23T21:24:15.536Z,4.20
2022-08-23T21:26:42.038Z,5.18
2022-08-23T21:29:09.761Z,3.92
2022-08-23T21:31:37.139Z,4.38
2022-08-23T21:34:03.885Z,3.55
2022-08-23T21:36:30.759Z,3.10
2022-08-23T21:38:57.262Z,4.93
2022-08-23T21:41:44.854Z,2.65
2022-08-23T21:44:14.966Z,5.97
2022-08-23T21:46:41.709Z,2.83
2022-08-23T21:49:08.486Z,7.18
2022-08-23T21:51:38.925Z,2.83
2022-08-23T21:54:06.920Z,4.20
2022-08-23T21:56:33.420Z,13.52
2022-08-23T21:59:01.996Z,3.00
2022-08-23T22:01:30.708Z,2.65
2022-08-23T22:03:57.440Z,2.85
2022-08-23T22:06:24.141Z,3.25
2022-08-23T22:08:50.612Z,3.95
2022-08-23T22:11:17.110Z,7.40
2022-08-23T22:13:43.665Z,6.25
2022-08-23T22:16:10.350Z,5.90
2022-08-23T22:18:36.875Z,6.72
2022-08-23T22:21:04.376Z,7.18
2022-08-23T22:23:31.850Z,4.55
2022-08-23T22:26:05.755Z,5.18
2022-08-23T22:28:33.769Z,5.18
2022-08-23T22:31:02.195Z,3.58
2022-08-23T22:33:28.920Z,3.50
2022-08-23T22:36:01.092Z,5.03
2022-08-23T22:38:27.550Z,2.53
2022-08-23T22:40:54.030Z,5.13
2022-08-23T22:43:20.729Z,4.85
2022-08-23T22:45:58.797Z,4.20
2022-08-23T22:48:29.204Z,4.72
2022-08-23T22:51:07.867Z,3.72
2022-08-23T22:53:36.641Z,4.50
2022-08-23T22:56:04.890Z,4.28
2022-08-23T22:58:31.781Z,3.15
2022-08-23T23:00:58.286Z,4.90
2022-08-23T23:03:24.854Z,3.53
2022-08-23T23:05:51.336Z,3.25
2022-08-23T23:08:29.946Z,2.55
2022-08-23T23:11:06.126Z,4.28
2022-08-23T23:13:33.240Z,2.90
2022-08-23T23:16:03.716Z,6.25
2022-08-23T23:18:30.182Z,2.53
2022-08-23T23:21:01.825Z,4.75
2022-08-23T23:23:30.781Z,2.67
2022-08-23T23:25:57.654Z,2.72
2022-08-23T23:28:24.533Z,5.47
2022-08-23T23:30:53.128Z,4.95
2022-08-23T23:33:21.753Z,3.35
2022-08-23T23:35:48.891Z,4.25
2022-08-23T23:38:15.967Z,3.15
2022-08-23T23:40:43.623Z,3.83
2022-08-23T23:43:11.892Z,4.63
2022-08-23T23:45:40.987Z,6.60
2022-08-23T23:48:08.591Z,5.55
2022-08-23T23:50:36.594Z,4.70
2022-08-23T23:53:04.182Z,5.03
2022-08-23T23:55:30.722Z,4.82
2022-08-23T23:57:57.207Z,3.55
